createdAt,value
2023-05-25T00:00:11.437Z,99178.47
2023-05-25T00:02:39.794Z,99179.34
2023-05-25T00:05:09.612Z,99178.50
2023-05-25T00:07:36.336Z,99181.06
2023-05-25T00:10:03.636Z,99188.06
2023-05-25T00:12:30.320Z,99186.31
2023-05-25T00:14:57.061Z,99191.50
2023-05-25T00:17:24.528Z,99190.66
2023-05-25T00:19:51.748Z,99189.78
2023-05-25T00:22:18.464Z,99193.25
2023-05-25T00:24:45.165Z,99194.13
2023-05-25T00:27:11.802Z,99203.72
2023-05-25T00:29:38.480Z,99201.03
2023-05-25T00:32:05.694Z,99206.09
2023-05-25T00:34:32.374Z,99211.38
2023-05-25T00:36:58.914Z,99215.78
2023-05-25T00:39:25.671Z,99214.91
2023-05-25T00:41:52.485Z,99217.47
2023-05-25T00:44:22.168Z,99222.69
2023-05-25T00:46:51.305Z,99219.22
2023-05-25T00:49:20.303Z,99212.28
2023-05-25T00:51:48.098Z,99224.47
2023-05-25T00:54:18.799Z,99207.09
2023-05-25T00:56:56.132Z,99215.78
2023-05-25T00:59:35.977Z,99212.28
2023-05-25T01:02:08.546Z,99205.31
2023-05-25T01:04:41.605Z,99208.78
2023-05-25T01:07:11.593Z,99210.50
2023-05-25T01:09:41.569Z,99213.94
2023-05-25T01:12:09.568Z,99209.53
2023-05-25T01:14:38.418Z,99212.16
2023-05-25T01:17:06.680Z,99211.31
2023-05-25T01:19:34.058Z,99215.72
2023-05-25T01:22:15.754Z,99212.25
2023-05-25T01:24:54.860Z,99211.38
2023-05-25T01:27:30.851Z,99208.75
2023-05-25T01:29:59.314Z,99212.28
2023-05-25T01:32:27.602Z,99207.91
2023-05-25T01:34:56.705Z,99214.84
2023-05-25T01:37:27.069Z,99219.16
2023-05-25T01:39:54.368Z,99215.59
2023-05-25T01:42:20.995Z,99209.50
2023-05-25T01:44:49.388Z,99219.06
2023-05-25T01:47:22.352Z,99212.97
2023-05-25T01:50:11.851Z,99210.38
2023-05-25T01:52:56.147Z,99206.94
2023-05-25T01:55:27.149Z,99199.97
2023-05-25T01:57:58.039Z,99194.75
2023-05-25T02:00:31.962Z,99198.22
2023-05-25T02:03:00.068Z,99194.72
2023-05-25T02:05:28.072Z,99192.09
2023-05-25T02:07:54.624Z,99200.81
2023-05-25T02:10:21.562Z,99204.28
2023-05-25T02:12:48.158Z,99209.53
2023-05-25T02:15:16.326Z,99207.75
2023-05-25T02:17:43.557Z,99212.09
2023-05-25T02:20:11.815Z,99208.56
2023-05-25T02:22:38.609Z,99205.91
2023-05-25T02:25:05.908Z,99204.03
2023-05-25T02:27:33.725Z,99200.56
2023-05-25T02:30:00.612Z,99194.47
2023-05-25T02:32:29.618Z,99196.16
2023-05-25T02:34:56.328Z,99191.81
2023-05-25T02:37:23.107Z,99196.16
2023-05-25T02:39:49.840Z,99202.31
2023-05-25T02:42:16.558Z,99204.91
2023-05-25T02:44:48.383Z,99216.19
2023-05-25T02:47:19.093Z,99201.44
2023-05-25T02:49:46.201Z,99202.25
2023-05-25T02:52:13.117Z,99199.56
2023-05-25T02:54:40.216Z,99200.50
2023-05-25T02:57:06.830Z,99197.03
2023-05-25T02:59:33.407Z,99203.13
2023-05-25T03:02:00.371Z,99209.25
2023-05-25T03:04:27.300Z,99210.13
2023-05-25T03:06:54.089Z,99200.50
2023-05-25T03:09:21.078Z,99203.16
2023-05-25T03:11:47.838Z,99207.47
2023-05-25T03:14:14.673Z,99201.44
2023-05-25T03:16:41.416Z,99201.44
2023-05-25T03:19:08.836Z,99211.88
2023-05-25T03:21:35.523Z,99210.13
2023-05-25T03:24:02.317Z,99211.81
2023-05-25T03:26:29.098Z,99211.00
2023-05-25T03:28:55.818Z,99211.00
2023-05-25T03:31:23.714Z,99211.91
2023-05-25T03:33:50.481Z,99214.53
2023-05-25T03:36:17.701Z,99217.94
2023-05-25T03:38:44.639Z,99217.09
2023-05-25T03:41:11.255Z,99218.91
2023-05-25T03:43:37.913Z,99229.31
2023-05-25T03:46:04.634Z,99228.41
2023-05-25T03:48:31.288Z,99234.44
2023-05-25T03:50:57.912Z,99235.28
2023-05-25T03:53:24.574Z,99237.94
2023-05-25T03:55:52.478Z,99233.59
2023-05-25T03:58:19.281Z,99231.88
2023-05-25T04:00:46.210Z,99228.44
2023-05-25T04:03:12.931Z,99236.22
2023-05-25T04:05:39.619Z,99234.53
2023-05-25T04:08:07.103Z,99248.47
2023-05-25T04:10:33.782Z,99249.34
2023-05-25T04:13:00.520Z,99256.38
2023-05-25T04:15:27.114Z,99256.44
2023-05-25T04:17:54.971Z,99261.69
2023-05-25T04:20:21.866Z,99260.94
2023-05-25T04:22:48.562Z,99254.00
2023-05-25T04:25:15.391Z,99261.06
2023-05-25T04:27:42.430Z,99255.91
2023-05-25T04:30:11.204Z,99264.69
2023-05-25T04:32:38.909Z,99271.69
2023-05-25T04:35:05.958Z,99270.00
2023-05-25T04:37:33.587Z,99274.38
2023-05-25T04:40:00.371Z,99277.03
2023-05-25T04:42:27.104Z,99270.06
2023-05-25T04:44:55.975Z,99279.69
2023-05-25T04:47:25.260Z,99274.44
2023-05-25T04:49:52.117Z,99277.94
2023-05-25T04:52:18.776Z,99278.78
2023-05-25T04:54:46.975Z,99285.75
2023-05-25T04:57:13.729Z,99283.97
2023-05-25T04:59:40.381Z,99282.22
2023-05-25T05:02:07.028Z,99283.94
2023-05-25T05:04:33.712Z,99283.91
2023-05-25T05:07:00.994Z,99284.78
2023-05-25T05:09:27.694Z,99284.72
2023-05-25T05:11:54.452Z,99284.69
2023-05-25T05:14:21.154Z,99281.16
2023-05-25T05:16:48.374Z,99292.44
2023-05-25T05:19:15.099Z,99285.38
2023-05-25T05:21:41.881Z,99283.59
2023-05-25T05:24:08.520Z,99288.75
2023-05-25T05:26:48.258Z,99289.59
2023-05-25T05:29:21.709Z,99298.25
2023-05-25T05:31:48.560Z,99299.03
2023-05-25T05:34:15.312Z,99294.59
2023-05-25T05:36:53.095Z,99301.59
2023-05-25T05:39:24.512Z,99305.94
2023-05-25T05:41:51.392Z,99312.94
2023-05-25T05:44:18.705Z,99308.53
2023-05-25T05:46:45.403Z,99316.34
2023-05-25T05:49:12.183Z,99316.41
2023-05-25T05:51:38.854Z,99318.13
2023-05-25T05:54:06.160Z,99314.50
2023-05-25T05:56:33.015Z,99320.59
2023-05-25T05:58:59.708Z,99324.13
2023-05-25T06:01:26.363Z,99325.78
2023-05-25T06:03:54.618Z,99331.94
2023-05-25T06:06:21.885Z,99333.66
2023-05-25T06:08:48.571Z,99330.91
2023-05-25T06:11:15.571Z,99329.13
2023-05-25T06:13:42.277Z,99336.94
2023-05-25T06:16:09.076Z,99332.44
2023-05-25T06:18:35.767Z,99324.47
2023-05-25T06:21:02.752Z,99331.34
2023-05-25T06:23:29.405Z,99327.66
2023-05-25T06:25:56.093Z,99329.38
2023-05-25T06:28:22.710Z,99330.09
2023-05-25T06:30:49.436Z,99332.50
2023-05-25T06:33:16.291Z,99342.81
2023-05-25T06:35:43.257Z,99333.03
2023-05-25T06:38:11.673Z,99330.31
2023-05-25T06:40:38.367Z,99326.66
2023-05-25T06:43:05.042Z,99321.16
2023-05-25T06:45:31.895Z,99324.34
2023-05-25T06:47:58.621Z,99328.50
2023-05-25T06:50:25.558Z,99325.63
2023-05-25T06:52:52.140Z,99316.41
2023-05-25T06:55:18.815Z,99321.34
2023-05-25T06:57:45.486Z,99320.22
2023-05-25T07:00:13.203Z,99327.97
2023-05-25T07:02:39.957Z,99327.38
2023-05-25T07:05:07.174Z,99326.97
2023-05-25T07:07:33.896Z,99323.81
2023-05-25T07:10:03.203Z,99317.88
2023-05-25T07:12:29.852Z,99312.88
2023-05-25T07:14:57.945Z,99326.66
2023-05-25T07:17:24.640Z,99320.69
2023-05-25T07:19:51.533Z,99330.16
2023-05-25T07:22:19.864Z,99325.56
2023-05-25T07:24:47.059Z,99338.75
2023-05-25T07:27:16.841Z,99328.78
2023-05-25T07:29:43.510Z,99326.72
2023-05-25T07:32:10.156Z,99330.25
2023-05-25T07:34:36.978Z,99324.88
2023-05-25T07:37:03.859Z,99330.84
2023-05-25T07:39:30.743Z,99326.59
2023-05-25T07:41:57.347Z,99325.72
2023-05-25T07:44:24.166Z,99321.59
2023-05-25T07:46:51.194Z,99323.72
2023-05-25T07:49:17.934Z,99331.03
2023-05-25T07:51:45.837Z,99328.66
2023-05-25T07:54:12.712Z,99338.16
2023-05-25T07:56:39.870Z,99340.63
2023-05-25T07:59:06.659Z,99344.84
2023-05-25T08:01:33.344Z,99343.19
2023-05-25T08:04:00.405Z,99342.38
2023-05-25T08:06:27.319Z,99345.19
2023-05-25T08:08:54.241Z,99345.97
2023-05-25T08:11:25.017Z,99337.59
2023-05-25T08:13:51.790Z,99341.88
2023-05-25T08:16:19.131Z,99345.88
2023-05-25T08:18:47.302Z,99340.56
2023-05-25T08:21:14.377Z,99341.81
2023-05-25T08:23:42.794Z,99338.59
2023-05-25T08:28:42.386Z,99353.16
2023-05-25T08:31:09.055Z,99360.28
2023-05-25T08:33:35.985Z,99360.47
2023-05-25T08:36:02.629Z,99359.59
2023-05-25T08:38:29.449Z,99359.66
2023-05-25T08:41:06.790Z,99362.59
2023-05-25T08:43:34.120Z,99351.56
2023-05-25T08:46:06.845Z,99344.59
2023-05-25T08:48:41.945Z,99368.38
2023-05-25T08:51:11.650Z,99362.69
2023-05-25T08:53:40.964Z,99365.50
2023-05-25T08:56:13.834Z,99370.25
2023-05-25T08:59:01.204Z,99360.50
2023-05-25T09:01:32.575Z,99365.38
2023-05-25T09:04:00.619Z,99365.53
2023-05-25T09:06:28.405Z,99365.28
2023-05-25T09:08:55.529Z,99359.69
2023-05-25T09:11:36.147Z,99365.84
2023-05-25T09:14:07.707Z,99364.41
2023-05-25T09:16:35.243Z,99371.44
2023-05-25T09:19:02.333Z,99371.16
2023-05-25T09:21:29.005Z,99374.00
2023-05-25T09:23:56.163Z,99382.13
2023-05-25T09:26:22.809Z,99372.81
2023-05-25T09:28:49.574Z,99372.56
2023-05-25T09:31:16.959Z,99363.06
2023-05-25T09:33:44.378Z,99363.38
2023-05-25T09:36:12.729Z,99370.25
2023-05-25T09:38:40.554Z,99358.63
2023-05-25T09:41:07.544Z,99367.63
2023-05-25T09:43:44.520Z,99365.84
2023-05-25T09:46:11.821Z,99367.81
2023-05-25T09:48:38.810Z,99363.81
2023-05-25T09:51:07.783Z,99370.78
2023-05-25T09:53:34.424Z,99371.78
2023-05-25T09:56:03.783Z,99373.63
2023-05-25T09:58:31.001Z,99368.47
2023-05-25T10:00:57.810Z,99373.31
2023-05-25T10:03:24.597Z,99379.78
2023-05-25T10:05:53.425Z,99369.72
2023-05-25T10:08:21.723Z,99369.47
2023-05-25T10:10:50.136Z,99373.84
2023-05-25T10:13:22.209Z,99369.31
2023-05-25T10:15:53.362Z,99369.50
2023-05-25T10:18:25.830Z,99361.84
2023-05-25T10:21:03.586Z,99349.91
2023-05-25T10:23:42.202Z,99347.72
2023-05-25T10:26:10.022Z,99357.66
2023-05-25T10:28:38.306Z,99364.56
2023-05-25T10:31:06.462Z,99362.97
2023-05-25T10:33:34.293Z,99362.38
2023-05-25T10:36:10.600Z,99349.38
2023-05-25T10:38:40.079Z,99355.00
2023-05-25T10:41:09.403Z,99358.75
2023-05-25T10:43:36.692Z,99351.66
2023-05-25T10:46:04.412Z,99349.09
2023-05-25T10:48:40.284Z,99341.00
2023-05-25T10:51:08.992Z,99338.19
2023-05-25T10:53:36.789Z,99339.88
2023-05-25T10:56:08.848Z,99348.19
2023-05-25T10:58:35.628Z,99345.13
2023-05-25T11:01:13.778Z,99343.50
2023-05-25T11:04:02.207Z,99335.56
2023-05-25T11:06:40.791Z,99338.84
2023-05-25T11:09:07.827Z,99326.94
2023-05-25T11:11:43.502Z,99335.25
2023-05-25T11:14:42.604Z,99333.63
2023-05-25T11:17:15.697Z,99327.97
2023-05-25T11:19:51.187Z,99327.66
2023-05-25T11:22:20.595Z,99317.28
2023-05-25T11:24:51.954Z,99322.25
2023-05-25T11:27:27.157Z,99320.53
2023-05-25T11:29:55.124Z,99324.34
2023-05-25T11:32:22.882Z,99319.19
2023-05-25T11:34:53.080Z,99327.47
2023-05-25T11:37:21.514Z,99320.63
2023-05-25T11:39:49.258Z,99315.72
2023-05-25T11:42:17.509Z,99327.03
2023-05-25T11:44:44.549Z,99313.81
2023-05-25T11:47:19.043Z,99307.59
2023-05-25T11:49:49.670Z,99302.84
2023-05-25T11:52:18.035Z,99298.06
2023-05-25T11:54:45.020Z,99300.41
2023-05-25T11:57:39.366Z,99304.22
2023-05-25T12:00:07.062Z,99308.69
2023-05-25T12:02:41.963Z,99304.34
2023-05-25T12:05:11.131Z,99305.66
2023-05-25T12:07:47.229Z,99297.44
2023-05-25T12:10:17.862Z,99294.47
2023-05-25T12:12:50.396Z,99300.09
2023-05-25T12:15:21.202Z,99288.56
2023-05-25T12:17:48.944Z,99286.59
2023-05-25T12:20:17.751Z,99283.34
2023-05-25T12:22:45.893Z,99283.13
2023-05-25T12:25:14.292Z,99282.78
2023-05-25T12:27:41.114Z,99288.00
2023-05-25T12:30:10.640Z,99285.94
2023-05-25T12:33:02.652Z,99282.31
2023-05-25T12:35:44.231Z,99284.59
2023-05-25T12:38:18.689Z,99275.06
2023-05-25T12:40:45.830Z,99278.94
2023-05-25T12:43:13.449Z,99274.31
2023-05-25T12:45:43.475Z,99264.66
2023-05-25T12:48:10.953Z,99273.00
2023-05-25T12:50:37.904Z,99271.28
2023-05-25T12:53:05.263Z,99266.94
2023-05-25T12:55:34.644Z,99278.88
2023-05-25T12:58:03.689Z,99272.78
2023-05-25T13:00:36.674Z,99275.09
2023-05-25T13:03:05.158Z,99275.34
2023-05-25T13:05:34.246Z,99282.91
2023-05-25T13:08:05.533Z,99282.91
2023-05-25T13:10:33.547Z,99269.03
2023-05-25T13:13:01.020Z,99264.34
2023-05-25T13:15:28.600Z,99271.53
2023-05-25T13:17:58.489Z,99276.56
2023-05-25T13:20:26.395Z,99260.81
2023-05-25T13:22:55.763Z,99256.41
2023-05-25T13:25:22.766Z,99263.81
2023-05-25T13:27:51.302Z,99262.75
2023-05-25T13:30:19.004Z,99253.19
2023-05-25T13:32:46.957Z,99257.47
2023-05-25T13:35:33.555Z,99260.22
2023-05-25T13:38:00.177Z,99250.50
2023-05-25T13:40:26.816Z,99251.47
2023-05-25T13:42:53.419Z,99245.28
2023-05-25T13:45:20.191Z,99240.34
2023-05-25T13:47:47.152Z,99243.84
2023-05-25T13:50:14.083Z,99249.50
2023-05-25T13:52:40.629Z,99251.78
2023-05-25T13:55:07.660Z,99246.56
2023-05-25T13:57:34.297Z,99245.97
2023-05-25T14:00:00.920Z,99245.47
2023-05-25T14:02:27.573Z,99237.88
2023-05-25T14:04:54.599Z,99243.34
2023-05-25T14:07:21.307Z,99229.47
2023-05-25T14:09:47.958Z,99241.03
2023-05-25T14:12:14.622Z,99233.22
2023-05-25T14:14:41.420Z,99233.13
2023-05-25T14:17:08.059Z,99237.50
2023-05-25T14:19:35.464Z,99235.44
2023-05-25T14:24:31.878Z,99234.72
2023-05-25T14:26:58.456Z,99232.91
2023-05-25T14:29:25.337Z,99232.16
2023-05-25T14:31:52.053Z,99237.06
2023-05-25T14:34:18.955Z,99231.84
2023-05-25T14:36:45.673Z,99232.66
2023-05-25T14:39:15.070Z,99224.94
2023-05-25T14:41:43.916Z,99229.50
2023-05-25T14:44:10.561Z,99232.59
2023-05-25T14:46:37.242Z,99236.00
2023-05-25T14:49:03.979Z,99234.47
2023-05-25T14:51:30.782Z,99238.47
2023-05-25T14:54:00.428Z,99229.03
2023-05-25T14:56:28.275Z,99233.50
2023-05-25T14:58:54.999Z,99239.53
2023-05-25T15:01:23.706Z,99238.84
2023-05-25T15:03:52.237Z,99227.56
2023-05-25T15:06:19.225Z,99237.88
2023-05-25T15:08:46.081Z,99230.72
2023-05-25T15:11:12.847Z,99221.88
2023-05-25T15:13:41.108Z,99222.31
2023-05-25T15:16:11.957Z,99217.06
2023-05-25T15:18:38.811Z,99218.34
2023-05-25T15:21:05.849Z,99210.50
2023-05-25T15:23:32.641Z,99213.56
2023-05-25T15:26:04.271Z,99211.31
2023-05-25T15:28:31.750Z,99210.63
2023-05-25T15:31:01.571Z,99207.75
2023-05-25T15:33:39.988Z,99205.31
2023-05-25T15:36:16.303Z,99202.06
2023-05-25T15:38:43.522Z,99205.22
2023-05-25T15:41:11.605Z,99211.72
2023-05-25T15:43:38.170Z,99205.81
2023-05-25T15:46:04.853Z,99207.34
2023-05-25T15:48:31.630Z,99208.81
2023-05-25T15:50:58.226Z,99206.03
2023-05-25T15:53:25.000Z,99199.78
2023-05-25T15:55:51.743Z,99209.84
2023-05-25T15:58:18.638Z,99206.66
2023-05-25T16:00:45.397Z,99208.13
2023-05-25T16:03:12.178Z,99209.09
2023-05-25T16:05:38.889Z,99198.59
2023-05-25T16:08:05.656Z,99197.22
2023-05-25T16:10:32.419Z,99201.63
2023-05-25T16:12:59.135Z,99206.81
2023-05-25T16:15:26.052Z,99203.16
2023-05-25T16:17:52.691Z,99197.44
2023-05-25T16:20:19.463Z,99191.69
2023-05-25T16:22:46.277Z,99192.84
2023-05-25T16:25:12.896Z,99187.53
2023-05-25T16:27:39.632Z,99186.34
2023-05-25T16:30:07.087Z,99193.84
2023-05-25T16:32:33.892Z,99184.03
2023-05-25T16:35:00.614Z,99187.44
2023-05-25T16:37:27.634Z,99184.78
2023-05-25T16:39:54.365Z,99187.38
2023-05-25T16:42:21.392Z,99187.38
2023-05-25T16:44:47.958Z,99185.22
2023-05-25T16:47:14.787Z,99194.81
2023-05-25T16:49:41.488Z,99195.50
2023-05-25T16:52:08.192Z,99190.53
2023-05-25T16:54:35.008Z,99191.75
2023-05-25T16:57:04.565Z,99186.81
2023-05-25T16:59:31.516Z,99184.84
2023-05-25T17:01:59.394Z,99200.16
2023-05-25T17:04:26.086Z,99194.47
2023-05-25T17:06:52.682Z,99191.25
2023-05-25T17:09:19.409Z,99187.50
2023-05-25T17:11:46.167Z,99191.88
2023-05-25T17:14:13.091Z,99200.53
2023-05-25T17:16:39.783Z,99200.38
2023-05-25T17:19:06.468Z,99202.03
2023-05-25T17:21:33.359Z,99199.59
2023-05-25T17:23:59.973Z,99200.22
2023-05-25T17:26:26.918Z,99199.78
2023-05-25T17:28:53.724Z,99207.41
2023-05-25T17:31:20.421Z,99201.88
2023-05-25T17:33:47.165Z,99205.47
2023-05-25T17:36:13.962Z,99202.63
2023-05-25T17:38:41.234Z,99198.28
2023-05-25T17:41:07.825Z,99201.25
2023-05-25T17:43:34.544Z,99202.88
2023-05-25T17:46:01.245Z,99205.31
2023-05-25T17:48:28.005Z,99199.34
2023-05-25T17:50:55.070Z,99207.56
2023-05-25T17:53:21.751Z,99203.22
2023-05-25T17:55:48.356Z,99209.63
2023-05-25T17:58:14.954Z,99204.94
2023-05-25T18:00:41.661Z,99209.78
2023-05-25T18:03:08.827Z,99203.97
2023-05-25T18:05:35.531Z,99205.19
2023-05-25T18:08:02.290Z,99213.59
2023-05-25T18:10:28.890Z,99207.84
2023-05-25T18:12:55.654Z,99216.13
2023-05-25T18:15:22.391Z,99216.38
2023-05-25T18:17:49.020Z,99213.47
2023-05-25T18:20:15.861Z,99222.59
2023-05-25T18:22:42.530Z,99219.22
2023-05-25T18:25:09.600Z,99216.25
2023-05-25T18:27:36.355Z,99221.66
2023-05-25T18:30:03.178Z,99224.28
2023-05-25T18:32:29.880Z,99227.47
2023-05-25T18:34:57.325Z,99230.66
2023-05-25T18:37:24.053Z,99225.81
2023-05-25T18:39:50.762Z,99233.28
2023-05-25T18:42:17.540Z,99237.16
2023-05-25T18:44:44.133Z,99238.31
2023-05-25T18:47:11.582Z,99243.84
2023-05-25T18:49:38.228Z,99242.97
2023-05-25T18:52:06.505Z,99238.94
2023-05-25T18:54:33.175Z,99245.09
2023-05-25T18:56:59.774Z,99247.91
2023-05-25T18:59:26.403Z,99252.53
2023-05-25T19:01:53.082Z,99253.41
2023-05-25T19:04:20.291Z,99255.53
2023-05-25T19:06:47.131Z,99257.66
2023-05-25T19:09:13.825Z,99253.59
2023-05-25T19:11:40.623Z,99254.84
2023-05-25T19:14:07.252Z,99261.44
2023-05-25T19:16:34.046Z,99264.09
2023-05-25T19:19:00.897Z,99266.41
2023-05-25T19:21:27.541Z,99268.31
2023-05-25T19:23:54.318Z,99277.22
2023-05-25T19:26:20.996Z,99272.94
2023-05-25T19:28:47.588Z,99285.72
2023-05-25T19:31:14.121Z,99280.59
2023-05-25T19:33:41.072Z,99282.31
2023-05-25T19:36:07.847Z,99287.88
2023-05-25T19:38:41.365Z,99294.28
2023-05-25T19:41:08.953Z,99298.78
2023-05-25T19:43:36.272Z,99300.75
2023-05-25T19:46:03.528Z,99302.59
2023-05-25T19:48:30.265Z,99309.84
2023-05-25T19:50:56.958Z,99308.16
2023-05-25T19:53:23.745Z,99304.59
2023-05-25T19:55:50.519Z,99314.47
2023-05-25T19:58:17.174Z,99308.69
2023-05-25T20:00:43.840Z,99312.59
2023-05-25T20:03:10.749Z,99314.72
2023-05-25T20:05:37.836Z,99321.94
2023-05-25T20:08:04.833Z,99316.81
2023-05-25T20:10:32.822Z,99324.00
2023-05-25T20:12:59.455Z,99325.09
2023-05-25T20:15:26.241Z,99335.81
2023-05-25T20:17:52.866Z,99333.34
2023-05-25T20:20:19.542Z,99341.63
2023-05-25T20:22:46.162Z,99344.50
2023-05-25T20:25:12.761Z,99347.28
2023-05-25T20:27:39.462Z,99350.09
2023-05-25T20:30:06.759Z,99353.66
2023-05-25T20:32:33.443Z,99358.97
2023-05-25T20:35:00.098Z,99351.09
2023-05-25T20:37:26.775Z,99352.03
2023-05-25T20:39:53.430Z,99357.44
2023-05-25T20:42:20.188Z,99361.91
2023-05-25T20:44:46.886Z,99348.88
2023-05-25T20:47:13.587Z,99361.44
2023-05-25T20:49:40.248Z,99356.41
2023-05-25T20:52:07.045Z,99358.16
2023-05-25T20:54:33.866Z,99354.69
2023-05-25T20:57:04.047Z,99354.88
2023-05-25T20:59:32.048Z,99363.72
2023-05-25T21:01:58.798Z,99368.25
2023-05-25T21:04:25.572Z,99368.34
2023-05-25T21:06:52.191Z,99367.47
2023-05-25T21:09:18.914Z,99374.59
2023-05-25T21:11:45.885Z,99368.59
2023-05-25T21:14:12.784Z,99376.63
2023-05-25T21:16:39.384Z,99366.13
2023-05-25T21:19:06.208Z,99373.16
2023-05-25T21:21:36.004Z,99367.94
2023-05-25T21:24:02.983Z,99375.78
2023-05-25T21:26:31.103Z,99380.16
2023-05-25T21:28:57.865Z,99380.19
2023-05-25T21:31:25.322Z,99371.31
2023-05-25T21:33:53.260Z,99374.03
2023-05-25T21:36:20.597Z,99376.69
2023-05-25T21:38:47.357Z,99382.81
2023-05-25T21:41:13.974Z,99378.53
2023-05-25T21:43:40.638Z,99383.91
2023-05-25T21:46:07.376Z,99382.22
2023-05-25T21:48:34.086Z,99385.78
2023-05-25T21:51:00.836Z,99379.75
2023-05-25T21:53:27.459Z,99383.31
2023-05-25T21:55:54.137Z,99379.81
2023-05-25T21:58:20.901Z,99386.03
2023-05-25T22:00:47.569Z,99383.31
2023-05-25T22:03:14.602Z,99386.00
2023-05-25T22:05:41.591Z,99399.19
2023-05-25T22:08:08.945Z,99394.00
2023-05-25T22:10:36.027Z,99385.34
2023-05-25T22:13:02.848Z,99397.66
2023-05-25T22:15:29.523Z,99397.72
2023-05-25T22:17:56.749Z,99388.00
2023-05-25T22:20:23.558Z,99394.19
2023-05-25T22:22:50.346Z,99401.25
2023-05-25T22:25:17.073Z,99398.63
2023-05-25T22:27:43.745Z,99391.66
2023-05-25T22:30:10.860Z,99381.13
2023-05-25T22:32:37.540Z,99387.28
2023-05-25T22:35:04.474Z,99389.91
2023-05-25T22:37:31.087Z,99389.00
2023-05-25T22:39:57.998Z,99390.81
2023-05-25T22:42:24.732Z,99396.13
2023-05-25T22:44:51.459Z,99393.53
2023-05-25T22:47:18.293Z,99397.94
2023-05-25T22:49:45.184Z,99385.66
2023-05-25T22:52:12.260Z,99397.94
2023-05-25T22:54:39.685Z,99400.56
2023-05-25T22:57:06.986Z,99396.25
2023-05-25T22:59:33.710Z,99391.91
2023-05-25T23:02:00.520Z,99396.28
2023-05-25T23:04:27.234Z,99398.06
2023-05-25T23:06:53.977Z,99400.75
2023-05-25T23:09:20.532Z,99405.13
2023-05-25T23:11:47.304Z,99401.59
2023-05-25T23:14:14.120Z,99398.13
2023-05-25T23:16:41.657Z,99402.50
2023-05-25T23:19:08.609Z,99404.22
2023-05-25T23:21:35.223Z,99396.38
2023-05-25T23:24:01.944Z,99400.75
2023-05-25T23:26:28.528Z,99401.63
2023-05-25T23:28:55.217Z,99406.03
2023-05-25T23:31:21.953Z,99407.78
2023-05-25T23:33:48.599Z,99403.44
2023-05-25T23:36:15.283Z,99400.84
2023-05-25T23:38:42.033Z,99407.84
2023-05-25T23:41:08.696Z,99400.03
2023-05-25T23:43:35.460Z,99406.13
2023-05-25T23:46:02.614Z,99405.22
2023-05-25T23:48:29.454Z,99403.50
2023-05-25T23:50:56.273Z,99393.88
2023-05-25T23:53:22.883Z,99393.00
2023-05-25T23:55:49.572Z,99400.03
2023-05-25T23:58:16.398Z,99404.41
